Time;durP1;ratioP1;P1;durP2;ratioP2;P2;SDS_P1;SDS_P2;PMS_P1;PMS_P2;Temp;Humidity;BMP_temperature;BMP_pressure;BME280_temperature;BME280_humidity;BME280_pressure;Samples;Min_cycle;Max_cycle;Signal;HPM_P1;HPM_P2
2023/06/15 00:00:19;;;;;;;11.88;6.97;;;;;;;15.74;76.64;100388.97;5133403;27;20195;-64
2023/06/15 00:02:47;;;;;;;11.60;7.50;;;;;;;15.81;76.89;100393.09;5132666;27;20212;-65
2023/06/15 00:05:16;;;;;;;7.88;7.07;;;;;;;15.80;77.03;100383.63;5128932;27;20199;-64
2023/06/15 00:07:45;;;;;;;8.32;7.35;;;;;;;15.82;76.67;100371.41;5133842;27;20292;-64
2023/06/15 00:10:15;;;;;;;10.13;6.57;;;;;;;15.83;76.65;100378.34;5129621;27;20205;-64
2023/06/15 00:12:43;;;;;;;9.60;6.68;;;;;;;15.79;76.21;100381.03;5131930;27;20626;-64
2023/06/15 00:15:12;;;;;;;7.15;6.45;;;;;;;15.78;76.15;100388.00;5132534;27;20204;-64
2023/06/15 00:17:41;;;;;;;7.30;6.55;;;;;;;15.73;76.21;100379.47;5129694;27;20204;-64
2023/06/15 00:20:12;;;;;;;9.52;6.22;;;;;;;15.72;75.85;100380.34;5127233;27;20213;-65
2023/06/15 00:22:45;;;;;;;8.30;6.82;;;;;;;15.69;75.60;100389.09;5130458;27;20214;-64
2023/06/15 00:25:16;;;;;;;9.20;6.35;;;;;;;15.67;75.67;100388.28;5131931;27;20242;-65
2023/06/15 00:27:44;;;;;;;10.52;6.35;;;;;;;15.63;75.95;100388.38;5129792;27;20242;-64
2023/06/15 00:30:13;;;;;;;7.93;6.68;;;;;;;15.53;76.10;100385.16;5135398;27;20705;-64
2023/06/15 00:32:41;;;;;;;9.60;7.30;;;;;;;15.43;76.44;100392.38;5140379;27;20211;-64
2023/06/15 00:35:10;;;;;;;8.75;6.88;;;;;;;15.39;76.71;100395.94;5130656;27;20294;-63
2023/06/15 00:37:38;;;;;;;6.88;5.97;;;;;;;15.36;76.86;100387.38;5132148;27;20326;-64
2023/06/15 00:40:07;;;;;;;8.15;6.07;;;;;;;15.34;77.12;100378.75;5126175;27;20233;-63
2023/06/15 00:42:36;;;;;;;7.20;6.47;;;;;;;15.33;76.84;100372.72;5137305;27;20256;-64
2023/06/15 00:45:06;;;;;;;7.55;6.25;;;;;;;15.37;77.10;100370.88;5133142;27;20286;-65
2023/06/15 00:47:38;;;;;;;10.48;6.32;;;;;;;15.37;76.79;100374.34;5134051;27;20555;-63
2023/06/15 00:50:10;;;;;;;9.50;7.05;;;;;;;15.39;77.21;100371.69;5130613;27;20234;-65
2023/06/15 00:52:39;;;;;;;7.07;6.35;;;;;;;15.37;77.12;100369.16;5127403;27;20211;-63
2023/06/15 00:55:11;;;;;;;8.20;6.10;;;;;;;15.38;76.85;100373.44;5132839;27;20248;-63
2023/06/15 00:57:44;;;;;;;7.95;6.78;;;;;;;15.35;77.20;100376.09;5130986;27;20207;-64
2023/06/15 01:00:14;;;;;;;9.10;6.53;;;;;;;15.35;76.66;100375.25;5132015;27;20210;-64
2023/06/15 01:02:44;;;;;;;7.95;6.78;;;;;;;15.33;77.25;100385.69;5129570;27;20199;-63
2023/06/15 01:05:16;;;;;;;7.22;5.97;;;;;;;15.32;77.07;100384.00;5131779;27;20665;-64
2023/06/15 01:07:48;;;;;;;7.70;6.43;;;;;;;15.27;76.72;100390.19;5132577;27;20306;-65
2023/06/15 01:10:19;;;;;;;7.72;6.60;;;;;;;15.19;77.21;100396.41;5131613;27;20199;-65
2023/06/15 01:12:50;;;;;;;7.40;6.40;;;;;;;15.18;77.28;100396.47;5123300;27;20675;-64
2023/06/15 01:15:19;;;;;;;7.38;6.50;;;;;;;15.12;77.68;100394.88;5128158;27;20203;-64
2023/06/15 01:17:53;;;;;;;7.88;6.65;;;;;;;15.06;77.96;100397.63;5126329;27;20211;-63
2023/06/15 01:20:27;;;;;;;7.70;6.90;;;;;;;15.02;78.32;100400.31;5126456;27;20572;-65
2023/06/15 01:23:01;;;;;;;9.27;7.13;;;;;;;14.96;78.69;100398.72;5129911;27;20210;-65
2023/06/15 01:25:37;;;;;;;9.77;7.00;;;;;;;14.87;79.12;100386.81;5127436;27;20254;-63
2023/06/15 01:28:09;;;;;;;8.27;7.20;;;;;;;14.85;79.68;100390.34;5132515;27;20214;-64
2023/06/15 01:30:41;;;;;;;8.38;7.05;;;;;;;14.86;79.42;100384.28;5131438;27;20234;-64
2023/06/15 01:33:09;;;;;;;7.75;6.93;;;;;;;14.83;79.95;100377.41;5132479;27;20198;-64
2023/06/15 01:35:38;;;;;;;9.70;7.22;;;;;;;14.87;79.65;100388.56;5133408;27;20229;-64
2023/06/15 01:38:06;;;;;;;10.60;7.22;;;;;;;14.84;79.74;100384.31;5126018;27;20206;-63
2023/06/15 01:40:38;;;;;;;13.18;7.95;;;;;;;14.84;79.87;100375.66;5132442;27;20218;-65
2023/06/15 01:43:10;;;;;;;9.27;7.78;;;;;;;14.82;80.09;100383.50;5130093;27;20630;-65
2023/06/15 01:45:40;;;;;;;8.32;7.43;;;;;;;14.82;80.10;100378.31;5131728;27;20239;-63
2023/06/15 01:48:09;;;;;;;9.05;7.63;;;;;;;14.83;80.30;100380.00;5131381;27;20677;-64
2023/06/15 01:50:38;;;;;;;8.60;7.80;;;;;;;14.85;80.65;100379.97;5125581;27;20203;-65
2023/06/15 01:53:06;;;;;;;9.25;7.93;;;;;;;14.83;80.91;100369.63;5128645;28;20293;-64
2023/06/15 01:55:35;;;;;;;10.70;7.80;;;;;;;14.84;80.62;100360.09;5129583;27;20203;-66
2023/06/15 01:58:03;;;;;;;10.35;8.50;;;;;;;14.87;80.69;100357.44;5136230;27;20225;-63
2023/06/15 02:00:32;;;;;;;9.10;8.02;;;;;;;14.88;81.13;100354.81;5131109;27;20617;-64
2023/06/15 02:03:01;;;;;;;16.58;8.07;;;;;;;14.91;80.60;100362.53;5125667;27;20205;-63
2023/06/15 02:05:29;;;;;;;8.70;7.35;;;;;;;14.91;80.60;100372.91;5130952;27;20199;-64
2023/06/15 02:07:57;;;;;;;8.10;7.32;;;;;;;14.86;80.30;100374.75;5126175;27;20229;-67
2023/06/15 02:10:26;;;;;;;10.30;7.85;;;;;;;14.72;80.59;100367.28;5130449;27;20245;-66
2023/06/15 02:12:53;;;;;;;10.00;7.90;;;;;;;14.67;80.67;100366.53;5132564;27;20570;-64
2023/06/15 02:15:21;;;;;;;8.57;7.68;;;;;;;14.64;81.92;100370.94;5131066;27;20205;-65
2023/06/15 02:18:00;;;;;;;10.03;7.93;;;;;;;14.60;82.25;100375.34;5126200;27;20648;-65
2023/06/15 02:20:29;;;;;;;10.30;8.25;;;;;;;14.57;81.85;100365.03;5130002;27;20259;-65
2023/06/15 02:22:59;;;;;;;9.27;8.35;;;;;;;14.57;82.42;100371.97;5134894;27;20203;-64
2023/06/15 02:25:27;;;;;;;9.98;8.25;;;;;;;14.57;82.11;100370.22;5130897;27;20239;-66
2023/06/15 02:27:56;;;;;;;8.43;7.40;;;;;;;14.59;82.28;100378.00;5135368;27;20615;-64
2023/06/15 02:30:25;;;;;;;8.77;7.87;;;;;;;14.61;82.66;100371.84;5132365;27;20624;-65
2023/06/15 02:33:00;;;;;;;8.90;8.00;;;;;;;14.63;82.44;100372.69;5135592;27;20573;-64
2023/06/15 02:35:28;;;;;;;10.43;8.27;;;;;;;14.67;82.25;100376.91;5132305;27;20206;-64
2023/06/15 02:37:56;;;;;;;9.65;8.48;;;;;;;14.69;81.57;100374.28;5140272;27;20214;-64
2023/06/15 02:40:24;;;;;;;11.35;8.48;;;;;;;14.70;81.64;100381.19;5132016;27;20199;-65
2023/06/15 02:42:52;;;;;;;8.77;7.65;;;;;;;14.73;81.86;100375.94;5133353;27;20199;-65
2023/06/15 02:45:21;;;;;;;8.30;7.50;;;;;;;14.76;81.51;100382.78;5134876;27;20202;-65
2023/06/15 02:47:49;;;;;;;9.57;8.10;;;;;;;14.75;81.93;100366.34;5131735;27;20570;-66
2023/06/15 02:50:18;;;;;;;10.55;8.85;;;;;;;14.79;81.69;100365.41;5132914;27;20199;-64
2023/06/15 02:52:47;;;;;;;9.27;8.37;;;;;;;14.81;81.69;100376.59;5136594;27;20342;-63
2023/06/15 02:55:15;;;;;;;10.30;8.57;;;;;;;14.82;81.82;100380.88;5136669;27;20252;-63
2023/06/15 02:57:43;;;;;;;10.45;8.07;;;;;;;14.83;81.72;100372.22;5134334;27;20214;-63
2023/06/15 03:00:13;;;;;;;9.00;8.10;;;;;;;14.86;81.60;100374.75;5135999;27;20552;-64
2023/06/15 03:02:43;;;;;;;10.05;8.43;;;;;;;14.85;81.51;100382.56;5132879;27;20199;-65
2023/06/15 03:05:11;;;;;;;10.65;8.40;;;;;;;14.83;81.24;100381.75;5137950;27;20593;-64
2023/06/15 03:07:41;;;;;;;9.25;8.05;;;;;;;14.82;81.28;100386.09;5134789;27;20207;-65
2023/06/15 03:10:10;;;;;;;9.88;8.57;;;;;;;14.82;81.19;100383.50;5130277;27;20307;-63
2023/06/15 03:12:38;;;;;;;12.45;9.02;;;;;;;14.89;81.80;100387.66;5138234;27;20574;-64
2023/06/15 03:15:08;;;;;;;9.35;8.30;;;;;;;14.94;81.52;100384.94;5133530;27;20669;-63
2023/06/15 03:17:36;;;;;;;8.90;7.50;;;;;;;14.98;80.81;100383.97;5131281;27;20209;-65
2023/06/15 03:20:08;;;;;;;8.82;8.02;;;;;;;14.96;80.52;100383.16;5132434;27;20199;-65
2023/06/15 03:22:36;;;;;;;8.38;7.43;;;;;;;14.94;81.02;100375.41;5131002;27;20199;-65
2023/06/15 03:25:10;;;;;;;9.65;8.65;;;;;;;14.92;80.78;100366.81;5133937;27;20458;-65
2023/06/15 03:27:40;;;;;;;9.07;8.07;;;;;;;14.97;80.88;100370.16;5131508;27;20199;-63
2023/06/15 03:30:11;;;;;;;9.18;7.60;;;;;;;15.04;80.53;100376.03;5132389;27;20302;-63
2023/06/15 03:32:39;;;;;;;8.85;8.02;;;;;;;15.03;80.53;100376.94;5133117;27;20215;-64
2023/06/15 03:35:08;;;;;;;9.73;8.10;;;;;;;15.03;80.34;100370.91;5132396;27;20241;-63
2023/06/15 03:37:36;;;;;;;11.15;8.50;;;;;;;15.01;80.08;100364.88;5135683;27;20199;-64
2023/06/15 03:40:08;;;;;;;9.30;8.38;;;;;;;15.00;80.55;100355.41;5128624;27;20211;-64
2023/06/15 03:42:36;;;;;;;9.32;8.43;;;;;;;15.02;80.86;100363.97;5128843;27;20210;-63
2023/06/15 03:45:05;;;;;;;10.52;8.63;;;;;;;15.07;80.55;100359.56;5122456;27;20206;-63
2023/06/15 03:47:33;;;;;;;10.00;9.00;;;;;;;15.13;80.44;100364.56;5134410;27;20204;-65
2023/06/15 03:50:01;;;;;;;8.93;8.10;;;;;;;15.22;80.57;100372.13;5127625;27;20227;-64
2023/06/15 03:52:32;;;;;;;8.75;7.90;;;;;;;15.32;80.17;100365.81;5129602;27;20195;-63
2023/06/15 03:55:00;;;;;;;9.80;8.80;;;;;;;15.39;80.06;100366.50;5127910;27;20226;-64
2023/06/15 03:57:30;;;;;;;10.00;8.98;;;;;;;15.42;79.97;100367.25;5132114;27;20565;-65
2023/06/15 03:59:59;;;;;;;10.07;8.13;;;;;;;15.46;79.05;100370.63;5134204;27;20253;-62
2023/06/15 04:02:27;;;;;;;13.20;8.57;;;;;;;15.44;78.89;100375.88;5130335;27;20203;-64
2023/06/15 04:04:56;;;;;;;10.38;9.27;;;;;;;15.41;78.92;100365.56;5131831;27;20227;-64
2023/06/15 04:07:25;;;;;;;10.20;9.10;;;;;;;15.41;79.05;100364.72;5134260;27;20217;-63
2023/06/15 04:09:53;;;;;;;9.63;8.73;;;;;;;15.42;79.58;100362.06;5134593;27;20206;-65
2023/06/15 04:12:22;;;;;;;9.35;8.45;;;;;;;15.52;79.80;100372.22;5133289;27;20256;-65
2023/06/15 04:14:51;;;;;;;12.95;9.25;;;;;;;15.53;79.65;100354.00;5132194;27;20204;-64
2023/06/15 04:17:19;;;;;;;9.88;8.65;;;;;;;15.66;79.65;100367.56;5132927;27;20202;-64
2023/06/15 04:19:47;;;;;;;10.80;8.77;;;;;;;15.74;79.42;100368.19;5134099;27;20629;-68
2023/06/15 04:22:16;;;;;;;11.18;8.55;;;;;;;15.78;78.78;100363.75;5132689;27;20252;-68
2023/06/15 04:24:44;;;;;;;12.35;8.15;;;;;;;15.81;78.82;100372.31;5130262;27;20202;-69
2023/06/15 04:27:13;;;;;;;10.40;8.82;;;;;;;15.85;79.04;100373.09;5132405;27;20327;-68
2023/06/15 04:29:45;;;;;;;10.13;8.48;;;;;;;15.87;78.88;100372.16;5128964;27;20256;-67
2023/06/15 04:32:15;;;;;;;10.13;8.77;;;;;;;15.91;78.04;100375.53;5130308;27;20533;-68
2023/06/15 04:34:45;;;;;;;9.52;8.57;;;;;;;15.88;78.44;100373.84;5137361;27;20198;-64
2023/06/15 04:37:13;;;;;;;9.40;8.23;;;;;;;15.87;78.40;100369.56;5128206;27;20205;-65
2023/06/15 04:39:41;;;;;;;9.88;8.38;;;;;;;15.87;78.64;100379.97;5131902;27;20191;-65
2023/06/15 04:42:11;;;;;;;11.27;8.10;;;;;;;15.87;78.43;100373.88;5123993;27;20603;-65
2023/06/15 04:44:39;;;;;;;10.18;7.93;;;;;;;15.86;78.67;100372.19;5131757;27;20204;-65
2023/06/15 04:47:08;;;;;;;11.50;8.90;;;;;;;15.83;78.50;100367.94;5131367;27;20230;-66
2023/06/15 04:49:37;;;;;;;9.77;8.07;;;;;;;15.79;78.71;100371.50;5129689;27;20284;-65
2023/06/15 04:52:06;;;;;;;8.55;7.68;;;;;;;15.71;78.22;100368.28;5128048;27;20222;-64
2023/06/15 04:54:35;;;;;;;8.82;8.02;;;;;;;15.66;78.04;100371.00;5133673;27;20199;-66
2023/06/15 04:57:04;;;;;;;10.05;8.93;;;;;;;15.61;78.63;100371.97;5127776;27;20263;-67
2023/06/15 04:59:32;;;;;;;9.63;8.15;;;;;;;15.57;78.87;100370.34;5132382;27;20196;-67
2023/06/15 05:02:00;;;;;;;13.50;8.80;;;;;;;15.57;78.94;100365.16;5123468;27;20211;-67
2023/06/15 05:04:28;;;;;;;9.55;7.80;;;;;;;15.59;78.69;100369.44;5133063;27;20538;-66
2023/06/15 05:06:58;;;;;;;9.70;8.00;;;;;;;15.65;78.90;100368.41;5131022;27;20210;-67
2023/06/15 05:09:26;;;;;;;9.40;8.43;;;;;;;15.73;78.19;100363.91;5135690;27;20203;-66
2023/06/15 05:11:54;;;;;;;9.27;8.27;;;;;;;15.84;78.05;100368.78;5130835;27;20248;-64
2023/06/15 05:14:22;;;;;;;8.93;8.02;;;;;;;15.95;78.09;100366.75;5127853;27;20211;-66
2023/06/15 05:16:50;;;;;;;9.55;8.57;;;;;;;16.10;78.49;100375.84;5128815;27;20207;-66
2023/06/15 05:19:18;;;;;;;12.07;8.88;;;;;;;16.29;77.87;100373.56;5129256;27;20209;-66
2023/06/15 05:21:46;;;;;;;10.05;8.57;;;;;;;16.41;76.74;100380.97;5135417;27;20676;-67
2023/06/15 05:24:15;;;;;;;9.90;8.85;;;;;;;16.46;76.01;100384.31;5133178;27;20251;-68
2023/06/15 05:26:43;;;;;;;16.25;13.40;;;;;;;16.48;75.08;100387.69;5130840;27;20238;-69
2023/06/15 05:29:11;;;;;;;9.18;8.35;;;;;;;16.48;74.81;100392.91;5130686;27;20207;-68
2023/06/15 05:31:39;;;;;;;9.25;8.02;;;;;;;16.50;74.67;100392.88;5130695;27;20228;-67
2023/06/15 05:34:07;;;;;;;8.77;7.88;;;;;;;16.49;74.89;100396.34;5126881;27;20294;-70
2023/06/15 05:36:36;;;;;;;9.70;7.45;;;;;;;16.52;74.96;100383.25;5125053;27;20282;-69
2023/06/15 05:39:25;;;;;;;11.25;8.77;;;;;;;16.94;75.03;100391.50;5121625;27;20199;-69
2023/06/15 05:41:53;;;;;;;9.23;7.43;;;;;;;18.50;76.88;100395.56;5133156;27;20289;-69
2023/06/15 05:44:21;;;;;;;7.72;7.03;;;;;;;20.82;68.19;100386.44;5128741;27;20244;-69
2023/06/15 05:47:05;;;;;;;7.43;6.32;;;;;;;23.91;55.50;100381.81;5132852;27;20204;-73
2023/06/15 05:49:33;;;;;;;6.43;5.80;;;;;;;26.67;46.25;100369.38;5131371;27;20255;-69
2023/06/15 05:52:01;;;;;;;6.00;5.50;;;;;;;28.42;40.47;100367.38;5128004;27;20195;-69
2023/06/15 05:54:31;;;;;;;6.30;5.68;;;;;;;29.39;37.55;100367.34;5128859;27;20207;-68
2023/06/15 05:57:00;;;;;;;5.80;5.20;;;;;;;29.26;37.34;100370.19;5119289;27;20289;-69
2023/06/15 05:59:28;;;;;;;5.75;5.22;;;;;;;28.45;38.20;100374.25;5126044;27;20200;-70
2023/06/15 06:02:01;;;;;;;5.72;4.80;;;;;;;29.41;37.80;100365.38;5130223;27;20206;-69
2023/06/15 06:04:29;;;;;;;5.47;4.00;;;;;;;30.90;34.24;100355.78;5128547;27;20214;-68
2023/06/15 06:06:58;;;;;;;7.55;4.72;;;;;;;32.16;31.41;100361.59;5128597;27;20608;-70
2023/06/15 06:09:26;;;;;;;6.55;4.32;;;;;;;32.82;29.98;100363.09;5130408;27;20800;-69
2023/06/15 06:11:56;;;;;;;5.53;4.72;;;;;;;33.74;28.98;100352.91;5127564;27;20614;-70
2023/06/15 06:14:25;;;;;;;5.53;4.55;;;;;;;34.08;28.18;100359.09;5130504;27;20199;-68
2023/06/15 06:16:53;;;;;;;4.97;4.55;;;;;;;33.88;28.24;100361.16;5130247;27;20592;-68
2023/06/15 06:19:22;;;;;;;5.63;4.90;;;;;;;32.86;29.22;100368.97;5122089;27;20203;-69
2023/06/15 06:21:50;;;;;;;5.30;4.70;;;;;;;32.96;29.12;100369.78;5131742;28;20223;-70
2023/06/15 06:24:18;;;;;;;6.03;4.85;;;;;;;33.17;29.28;100367.56;5125593;27;20286;-70
2023/06/15 06:26:50;;;;;;;6.07;4.13;;;;;;;32.92;28.72;100376.38;5125347;27;20598;-69
2023/06/15 06:29:20;;;;;;;5.05;4.35;;;;;;;31.32;29.87;100379.44;5124871;27;20199;-69
2023/06/15 06:31:48;;;;;;;5.72;4.57;;;;;;;29.34;33.07;100387.13;5128246;27;20649;-69
2023/06/15 06:34:15;;;;;;;4.97;4.57;;;;;;;27.45;36.53;100390.81;5130996;27;20206;-69
2023/06/15 06:36:44;;;;;;;5.25;4.60;;;;;;;27.24;39.16;100392.47;5129021;27;20256;-69
2023/06/15 06:39:12;;;;;;;6.68;5.10;;;;;;;28.40;36.32;100394.03;5128846;27;20601;-68
2023/06/15 06:41:40;;;;;;;5.38;4.53;;;;;;;27.66;36.42;100393.63;5122863;27;20207;-72
2023/06/15 06:44:08;;;;;;;5.25;4.53;;;;;;;28.93;35.96;100398.53;5119420;27;20663;-70
2023/06/15 06:46:37;;;;;;;4.28;3.88;;;;;;;31.60;31.76;100386.50;5129009;27;20225;-70
2023/06/15 06:49:05;;;;;;;4.90;4.50;;;;;;;33.84;27.57;100380.34;5131178;27;20276;-69
2023/06/15 06:51:33;;;;;;;4.45;3.90;;;;;;;35.17;26.32;100373.31;5125145;27;20219;-69
2023/06/15 06:54:02;;;;;;;5.82;4.20;;;;;;;34.45;25.56;100379.25;5130014;27;20326;-69
2023/06/15 06:56:30;;;;;;;4.97;4.05;;;;;;;32.13;28.23;100385.88;5128521;27;20239;-71
2023/06/15 06:58:58;;;;;;;4.85;4.25;;;;;;;29.83;32.20;100388.28;5127335;27;20322;-70
2023/06/15 07:01:26;;;;;;;4.50;4.13;;;;;;;28.14;35.54;100390.78;5129642;27;20670;-69
2023/06/15 07:03:55;;;;;;;5.50;3.80;;;;;;;26.74;37.49;100389.13;5125744;27;20291;-68
2023/06/15 07:06:23;;;;;;;5.60;4.25;;;;;;;25.52;39.94;100394.19;5126305;27;20218;-70
2023/06/15 07:08:51;;;;;;;4.45;4.05;;;;;;;24.48;42.80;100397.53;5129778;27;20198;-68
2023/06/15 07:11:20;;;;;;;4.45;4.05;;;;;;;23.55;44.89;100391.78;5136453;27;20207;-68
2023/06/15 07:13:48;;;;;;;4.47;4.07;;;;;;;22.84;47.36;100404.72;5131976;27;20643;-69
2023/06/15 07:16:16;;;;;;;4.28;3.88;;;;;;;22.23;48.96;100400.22;5130262;27;20200;-70
2023/06/15 07:18:44;;;;;;;4.80;4.28;;;;;;;21.74;50.63;100398.41;5127592;27;20207;-69
2023/06/15 07:21:13;;;;;;;6.63;4.20;;;;;;;21.29;52.20;100391.94;5129564;27;20195;-69
2023/06/15 07:23:41;;;;;;;4.18;3.85;;;;;;;21.03;52.96;100403.72;5132115;27;20753;-69
2023/06/15 07:26:20;;;;;;;4.88;3.60;;;;;;;20.81;53.28;100401.31;5124478;27;20242;-70
2023/06/15 07:28:48;;;;;;;4.15;3.72;;;;;;;20.66;53.13;100399.44;5127279;27;20258;-70
2023/06/15 07:31:16;;;;;;;4.07;3.33;;;;;;;20.49;53.42;100398.44;5130014;27;20304;-69
2023/06/15 07:33:44;;;;;;;4.95;3.58;;;;;;;20.44;53.18;100410.03;5132533;27;20279;-71
2023/06/15 07:36:14;;;;;;;4.10;3.80;;;;;;;20.44;53.14;100399.56;5133832;27;20207;-68
2023/06/15 07:38:42;;;;;;;5.30;3.92;;;;;;;20.50;53.69;100404.53;5134913;27;20550;-70
2023/06/15 07:41:10;;;;;;;5.55;4.65;;;;;;;20.48;54.26;100406.34;5132095;27;20202;-70
2023/06/15 07:43:38;;;;;;;5.50;3.90;;;;;;;20.55;54.87;100413.03;5133418;27;20211;-69
2023/06/15 07:46:06;;;;;;;4.63;4.20;;;;;;;20.55;55.24;100402.56;5131785;27;20565;-69
2023/06/15 07:48:34;;;;;;;4.85;4.15;;;;;;;20.54;55.07;100406.06;5130226;27;20713;-66
2023/06/15 07:51:02;;;;;;;5.97;4.47;;;;;;;20.49;54.67;100408.91;5131953;27;20219;-69
2023/06/15 07:53:32;;;;;;;7.07;4.70;;;;;;;20.39;54.61;100406.75;5128008;27;20650;-67
2023/06/15 07:56:00;;;;;;;4.97;4.45;;;;;;;20.31;54.56;100414.13;5135516;27;20548;-68
2023/06/15 07:58:28;;;;;;;4.28;3.88;;;;;;;20.29;54.80;100414.22;5133821;27;20230;-70
2023/06/15 08:00:56;;;;;;;4.70;4.13;;;;;;;20.33;55.08;100410.53;5131932;27;20237;-68
2023/06/15 08:03:24;;;;;;;4.32;3.90;;;;;;;20.43;54.92;100410.94;5135217;27;20199;-65
2023/06/15 08:05:52;;;;;;;4.88;4.25;;;;;;;20.42;54.96;100409.25;5129861;27;20203;-67
2023/06/15 08:08:21;;;;;;;5.43;4.43;;;;;;;20.54;54.27;100406.06;5132718;27;20203;-69
2023/06/15 08:10:50;;;;;;;5.10;4.47;;;;;;;20.77;53.79;100404.13;5138374;27;20207;-68
2023/06/15 08:13:20;;;;;;;5.95;4.28;;;;;;;21.15;53.53;100397.88;5133786;27;20233;-68
2023/06/15 08:15:49;;;;;;;5.63;4.05;;;;;;;21.77;52.91;100400.03;5132835;27;20204;-68
2023/06/15 08:18:17;;;;;;;4.80;4.30;;;;;;;22.37;51.22;100389.81;5131152;27;20237;-67
2023/06/15 08:20:45;;;;;;;4.80;4.22;;;;;;;22.81;49.43;100397.00;5117904;27;20559;-68
2023/06/15 08:23:13;;;;;;;5.45;4.53;;;;;;;22.93;47.64;100390.22;5133302;27;20558;-70
2023/06/15 08:25:42;;;;;;;4.75;4.40;;;;;;;22.94;47.31;100384.91;5131355;27;20235;-68
2023/06/15 08:28:11;;;;;;;5.47;4.97;;;;;;;23.08;47.35;100387.56;5132863;27;20199;-68
2023/06/15 08:30:39;;;;;;;4.90;4.47;;;;;;;23.26;46.63;100385.63;5134101;27;20203;-67
2023/06/15 08:33:07;;;;;;;4.22;3.85;;;;;;;23.46;46.12;100381.84;5135068;27;20562;-71
2023/06/15 08:35:35;;;;;;;8.45;4.75;;;;;;;23.75;45.44;100382.75;5135311;27;20203;-72
2023/06/15 08:38:03;;;;;;;6.20;4.40;;;;;;;24.10;44.80;100388.44;5129029;27;20568;-65
2023/06/15 08:40:32;;;;;;;4.75;4.25;;;;;;;24.26;43.99;100388.31;5133055;27;20318;-65
2023/06/15 08:43:02;;;;;;;5.88;4.10;;;;;;;24.28;43.92;100381.19;5127379;27;20610;-62
2023/06/15 08:45:39;;;;;;;6.85;4.53;;;;;;;24.23;43.80;100382.41;5127273;27;20199;-66
2023/06/15 08:48:08;;;;;;;6.90;4.60;;;;;;;24.17;43.49;100369.66;5130136;27;20202;-69
2023/06/15 08:50:39;;;;;;;4.40;4.00;;;;;;;24.10;43.49;100370.03;5127272;27;20206;-70
2023/06/15 08:53:09;;;;;;;4.95;4.43;;;;;;;23.97;43.62;100366.47;5131948;27;20219;-71
2023/06/15 08:55:38;;;;;;;6.82;4.18;;;;;;;23.88;43.93;100371.47;5131292;27;20195;-69
2023/06/15 08:58:07;;;;;;;7.30;4.03;;;;;;;23.59;43.70;100367.00;5134420;27;20595;-70
2023/06/15 09:00:39;;;;;;;5.30;4.28;;;;;;;23.26;43.89;100369.84;5132720;27;20192;-70
2023/06/15 09:03:09;;;;;;;5.82;4.35;;;;;;;22.90;44.18;100372.81;5137243;27;20204;-69
2023/06/15 09:05:37;;;;;;;4.78;4.22;;;;;;;22.61;45.36;100371.88;5126263;27;20217;-72
2023/06/15 09:08:06;;;;;;;5.00;4.50;;;;;;;22.38;46.41;100371.34;5128679;27;20230;-72
2023/06/15 09:10:37;;;;;;;6.10;4.70;;;;;;;22.40;46.65;100373.91;5138810;27;20207;-69
2023/06/15 09:13:05;;;;;;;7.43;4.50;;;;;;;22.38;46.78;100373.13;5131082;27;20298;-69
2023/06/15 09:15:33;;;;;;;6.32;4.60;;;;;;;22.36;46.90;100372.38;5129469;27;20199;-71
2023/06/15 09:18:03;;;;;;;5.15;4.75;;;;;;;22.60;47.46;100363.13;5130334;27;20232;-70
2023/06/15 09:20:32;;;;;;;5.22;4.65;;;;;;;22.96;46.88;100371.66;5129737;27;20208;-69
2023/06/15 09:23:02;;;;;;;6.40;4.78;;;;;;;23.19;45.64;100367.69;5131069;27;20200;-68
2023/06/15 09:25:31;;;;;;;4.57;4.18;;;;;;;23.30;44.98;100365.25;5131944;27;20231;-70
2023/06/15 09:28:01;;;;;;;9.95;5.00;;;;;;;23.31;44.26;100374.88;5132370;27;20203;-71
2023/06/15 09:30:34;;;;;;;5.00;4.50;;;;;;;23.09;44.44;100362.13;5129447;27;20211;-72
2023/06/15 09:33:12;;;;;;;5.93;4.68;;;;;;;22.86;45.00;100360.78;5131401;27;20258;-70
2023/06/15 09:35:57;;;;;;;4.65;4.25;;;;;;;22.58;45.28;100366.78;5118502;27;20307;-71
2023/06/15 09:38:25;;;;;;;4.30;3.90;;;;;;;22.37;45.31;100361.78;5135890;27;20195;-71
2023/06/15 09:40:54;;;;;;;5.05;3.83;;;;;;;22.28;45.83;100364.09;5130831;27;20199;-72
2023/06/15 09:43:23;;;;;;;7.03;4.97;;;;;;;22.15;45.84;100364.75;5132044;27;20195;-68
2023/06/15 09:45:51;;;;;;;6.55;4.93;;;;;;;21.91;46.43;100372.16;5123820;27;20244;-71
2023/06/15 09:48:21;;;;;;;5.85;4.53;;;;;;;21.69;47.47;100366.34;5127916;27;20207;-70
2023/06/15 09:50:50;;;;;;;6.55;4.65;;;;;;;21.55;48.08;100366.22;5121097;27;20203;-69
2023/06/15 09:53:19;;;;;;;5.45;4.57;;;;;;;21.42;48.57;100369.44;5119789;27;20634;-70
2023/06/15 09:55:49;;;;;;;7.35;4.65;;;;;;;21.48;48.35;100363.06;5116221;27;20199;-68
2023/06/15 09:58:17;;;;;;;5.75;4.63;;;;;;;21.68;48.12;100370.72;5115296;27;20278;-69
2023/06/15 10:00:45;;;;;;;5.20;4.70;;;;;;;22.19;46.95;100366.25;5128585;27;20195;-69
2023/06/15 10:03:19;;;;;;;7.32;5.45;;;;;;;22.45;46.29;100368.38;5128283;27;20291;-69
2023/06/15 10:05:54;;;;;;;5.88;4.82;;;;;;;22.68;45.99;100360.06;5131448;27;20219;-69
2023/06/15 10:08:25;;;;;;;5.20;4.57;;;;;;;23.17;45.84;100362.53;5129334;27;20213;-71
2023/06/15 10:10:55;;;;;;;7.63;5.38;;;;;;;24.29;43.28;100360.97;5125415;27;20614;-70
2023/06/15 10:13:29;;;;;;;6.13;4.28;;;;;;;24.97;40.52;100357.47;5124605;27;20214;-67
2023/06/15 10:16:00;;;;;;;7.80;3.97;;;;;;;24.97;39.50;100347.75;5126403;27;20611;-67
2023/06/15 10:18:29;;;;;;;4.55;4.15;;;;;;;25.16;39.82;100357.09;5129272;27;20207;-66
2023/06/15 10:21:01;;;;;;;6.28;4.07;;;;;;;26.10;37.73;100359.41;5130154;27;20231;-68
2023/06/15 10:23:32;;;;;;;6.93;3.83;;;;;;;25.89;37.13;100346.78;5129920;27;20230;-68
2023/06/15 10:26:10;;;;;;;5.30;3.80;;;;;;;25.28;38.37;100345.72;5128395;27;20230;-68
2023/06/15 10:28:44;;;;;;;4.75;4.35;;;;;;;24.63;39.91;100354.38;5130090;27;20218;-69
2023/06/15 10:31:23;;;;;;;4.47;4.07;;;;;;;23.89;41.17;100350.28;5125087;27;20737;-70
2023/06/15 10:33:57;;;;;;;5.00;4.28;;;;;;;23.28;43.30;100365.38;5132370;27;20221;-70
2023/06/15 10:36:29;;;;;;;6.78;4.20;;;;;;;22.23;46.86;100369.56;5127678;27;20199;-70
2023/06/15 10:39:03;;;;;;;5.00;4.60;;;;;;;21.50;49.90;100363.81;5131594;27;20238;-70
2023/06/15 10:41:32;;;;;;;5.65;5.13;;;;;;;21.23;50.63;100377.38;5129763;27;20223;-70
2023/06/15 10:44:00;;;;;;;7.35;5.32;;;;;;;21.13;51.55;100376.13;5133538;27;20191;-69
2023/06/15 10:46:30;;;;;;;6.50;5.22;;;;;;;21.72;50.59;100363.53;5132997;27;20613;-70
2023/06/15 10:49:04;;;;;;;6.25;5.43;;;;;;;22.87;48.97;100365.13;5137884;27;20210;-69
2023/06/15 10:51:35;;;;;;;4.93;4.40;;;;;;;24.59;44.17;100364.28;5138440;27;20198;-69
2023/06/15 10:54:04;;;;;;;6.50;4.07;;;;;;;26.50;40.50;100355.59;5130408;27;20212;-70
2023/06/15 10:56:33;;;;;;;4.90;3.65;;;;;;;28.06;37.46;100349.97;5131434;27;20302;-70
2023/06/15 10:59:04;;;;;;;4.68;4.20;;;;;;;29.31;34.30;100352.91;5134481;27;20203;-70
2023/06/15 11:01:33;;;;;;;3.65;3.30;;;;;;;30.46;31.50;100339.38;5129438;27;20229;-68
2023/06/15 11:04:22;;;;;;;4.05;2.90;;;;;;;31.56;29.47;100333.66;5133981;27;20208;-67
2023/06/15 11:06:58;;;;;;;3.40;3.10;;;;;;;31.86;28.42;100329.91;5133592;27;20635;-68
2023/06/15 11:09:35;;;;;;;4.18;3.78;;;;;;;30.54;29.55;100332.38;5125208;27;20199;-67
2023/06/15 11:12:35;;;;;;;4.68;3.80;;;;;;;29.42;31.22;100335.19;5133038;27;20541;-66
2023/06/15 11:15:08;;;;;;;4.10;3.70;;;;;;;28.82;32.74;100330.47;5132143;27;20206;-68
2023/06/15 11:17:57;;;;;;;4.50;4.10;;;;;;;28.53;33.01;100338.16;5127707;27;20227;-68
2023/06/15 11:20:43;;;;;;;3.78;3.03;;;;;;;27.79;32.99;100330.00;5135389;27;20201;-68
2023/06/15 11:23:14;;;;;;;4.47;3.63;;;;;;;27.19;34.24;100333.78;5131005;27;20206;-68
2023/06/15 11:25:44;;;;;;;3.22;2.92;;;;;;;28.05;33.57;100332.38;5134170;27;20260;-68
2023/06/15 11:28:20;;;;;;;4.32;3.22;;;;;;;28.61;31.90;100324.28;5133178;27;20234;-68
2023/06/15 11:31:06;;;;;;;4.35;3.83;;;;;;;27.66;32.37;100321.31;5133040;27;20205;-68
2023/06/15 11:33:37;;;;;;;4.25;3.85;;;;;;;27.54;33.72;100327.53;5135680;27;20211;-67
2023/06/15 11:36:08;;;;;;;3.92;3.58;;;;;;;28.77;31.83;100329.19;5125595;27;20624;-69